Time;durP1;ratioP1;P1;durP2;ratioP2;P2;SDS_P1;SDS_P2;PMS_P1;PMS_P2;Temp;Humidity;BMP_temperature;BMP_pressure;BME280_temperature;BME280_humidity;BME280_pressure;Samples;Min_cycle;Max_cycle;Signal;HPM_P1;HPM_P2
2021/05/17 00:00:07;;;;;;;12.00;4.15;;;;;;;15.46;82.30;99806.03;1639105;84;21338;-65
2021/05/17 00:02:36;;;;;;;8.83;3.90;;;;;;;15.44;82.48;99801.22;1638839;85;22069;-63
2021/05/17 00:05:04;;;;;;;6.85;3.77;;;;;;;15.44;82.56;99809.33;1645147;85;21696;-64
2021/05/17 00:07:32;;;;;;;9.73;3.27;;;;;;;15.43;82.57;99806.72;1646514;85;21422;-69
2021/05/17 00:10:00;;;;;;;5.72;3.55;;;;;;;15.44;82.52;99804.39;1644048;85;21590;-69
2021/05/17 00:12:27;;;;;;;13.22;3.83;;;;;;;15.44;82.37;99805.27;1613279;87;21659;-68
2021/05/17 00:14:55;;;;;;;11.70;4.30;;;;;;;15.45;82.34;99804.30;1629063;85;21130;-68
2021/05/17 00:17:23;;;;;;;10.03;4.00;;;;;;;15.47;82.42;99805.52;1597659;88;21062;-68
2021/05/17 00:19:50;;;;;;;6.50;3.75;;;;;;;15.49;82.55;99801.38;1605664;88;21119;-70
2021/05/17 00:22:20;;;;;;;12.00;3.95;;;;;;;15.52;82.46;99790.34;1608988;86;21230;-70
2021/05/17 00:24:49;;;;;;;11.05;4.35;;;;;;;15.53;82.40;99782.63;1615428;86;21055;-63
2021/05/17 00:27:18;;;;;;;14.25;3.90;;;;;;;15.53;82.42;99762.36;1624688;86;21220;-63
2021/05/17 00:29:47;;;;;;;7.42;3.30;;;;;;;15.51;82.46;99759.79;1616313;87;21169;-71
2021/05/17 00:32:13;;;;;;;12.10;4.10;;;;;;;15.51;81.84;99753.52;1608804;87;21571;-69
2021/05/17 00:34:40;;;;;;;17.90;3.92;;;;;;;15.52;81.92;99758.81;1624097;86;21112;-69
2021/05/17 00:37:08;;;;;;;7.62;3.55;;;;;;;15.52;81.49;99760.64;1633030;87;21121;-64
2021/05/17 00:39:35;;;;;;;6.65;3.83;;;;;;;15.53;81.70;99754.27;1609505;87;21534;-70
2021/05/17 00:42:05;;;;;;;10.32;3.77;;;;;;;15.49;81.57;99741.95;1629024;86;21081;-66
2021/05/17 00:44:32;;;;;;;11.08;4.00;;;;;;;15.49;81.40;99725.75;1619021;86;21142;-65
2021/05/17 00:46:58;;;;;;;6.47;3.50;;;;;;;15.49;81.56;99729.33;1609907;87;21181;-70
2021/05/17 00:49:26;;;;;;;7.40;3.55;;;;;;;15.50;80.99;99727.47;1615443;87;21089;-69
2021/05/17 00:51:55;;;;;;;6.53;3.27;;;;;;;15.47;80.76;99725.84;1615919;87;21068;-65
2021/05/17 00:54:24;;;;;;;11.05;3.52;;;;;;;15.46;80.81;99725.00;1606429;87;21159;-65
2021/05/17 00:56:53;;;;;;;10.38;3.60;;;;;;;15.46;80.77;99716.89;1608946;87;21469;-64
2021/05/17 00:59:21;;;;;;;11.03;3.70;;;;;;;15.47;80.52;99711.87;1605817;87;21606;-64
2021/05/17 01:01:50;;;;;;;13.55;4.08;;;;;;;15.52;80.22;99712.02;1607387;87;21102;-65
2021/05/17 01:04:20;;;;;;;9.20;4.55;;;;;;;15.55;79.73;99722.59;1598248;87;21148;-70
2021/05/17 01:06:51;;;;;;;9.53;3.98;;;;;;;15.56;79.54;99723.84;1625959;86;21545;-69
2021/05/17 01:09:20;;;;;;;10.70;4.62;;;;;;;15.57;79.28;99732.80;1595142;87;21145;-68
2021/05/17 01:11:50;;;;;;;8.95;5.33;;;;;;;15.55;79.08;99719.89;1658382;85;21045;-63
2021/05/17 01:14:17;;;;;;;13.80;5.08;;;;;;;15.51;79.15;99716.57;1659362;84;21191;-66
2021/05/17 01:16:46;;;;;;;15.85;4.60;;;;;;;15.49;79.29;99729.80;1658243;84;21491;-65
2021/05/17 01:19:14;;;;;;;13.98;5.50;;;;;;;15.45;79.53;99725.97;1631536;86;21073;-64
2021/05/17 01:21:42;;;;;;;13.38;4.35;;;;;;;15.42;79.70;99718.09;1663976;84;21491;-63
2021/05/17 01:24:11;;;;;;;9.70;4.35;;;;;;;15.36;80.12;99710.41;1622849;86;21150;-66
2021/05/17 01:26:39;;;;;;;8.70;3.92;;;;;;;15.31;80.26;99702.66;1648097;86;21071;-66
2021/05/17 01:29:07;;;;;;;8.33;3.90;;;;;;;15.28;80.30;99703.36;1658796;84;21061;-69
2021/05/17 01:31:35;;;;;;;8.08;3.55;;;;;;;15.23;80.53;99705.03;1660218;85;21610;-69
2021/05/17 01:34:06;;;;;;;7.37;3.62;;;;;;;15.18;80.73;99702.68;1631339;86;21090;-69
2021/05/17 01:36:34;;;;;;;6.37;3.25;;;;;;;15.17;81.01;99703.66;1661173;84;21630;-69
2021/05/17 01:39:01;;;;;;;9.13;3.22;;;;;;;15.17;81.07;99696.02;1635385;86;21665;-64
2021/05/17 01:41:28;;;;;;;8.25;3.25;;;;;;;15.18;81.09;99706.73;1633314;86;21653;-64
2021/05/17 01:43:57;;;;;;;9.13;3.33;;;;;;;15.18;81.08;99705.38;1616712;87;21189;-64
2021/05/17 01:46:29;;;;;;;5.17;3.10;;;;;;;15.18;81.03;99713.48;1603186;88;21185;-68
2021/05/17 01:48:58;;;;;;;6.22;3.10;;;;;;;15.17;81.07;99700.95;1633249;86;21184;-64
2021/05/17 01:51:26;;;;;;;7.90;3.30;;;;;;;15.16;80.96;99699.23;1651112;85;21394;-64
2021/05/17 01:53:55;;;;;;;6.53;2.85;;;;;;;15.15;80.96;99693.92;1657461;84;21506;-64
2021/05/17 01:56:23;;;;;;;4.75;3.45;;;;;;;15.13;81.13;99699.42;1615984;86;21161;-69
2021/05/17 01:58:52;;;;;;;8.25;3.10;;;;;;;15.10;81.36;99703.69;1663331;84;21116;-68
2021/05/17 02:01:19;;;;;;;5.87;3.27;;;;;;;15.08;81.60;99704.79;1639753;86;21667;-68
2021/05/17 02:03:51;;;;;;;6.40;3.00;;;;;;;15.03;81.85;99698.36;1659684;84;21018;-64
2021/05/17 02:06:18;;;;;;;4.45;3.00;;;;;;;15.01;82.08;99694.41;1659794;84;21093;-65
2021/05/17 02:08:50;;;;;;;8.60;3.42;;;;;;;14.99;82.26;99691.45;1672840;84;21093;-64
2021/05/17 02:11:20;;;;;;;5.40;2.92;;;;;;;14.97;82.51;99690.20;1657515;84;21118;-67
2021/05/17 02:13:48;;;;;;;6.25;2.95;;;;;;;14.93;82.83;99685.15;1642359;85;21069;-68
2021/05/17 02:16:16;;;;;;;7.75;3.40;;;;;;;14.90;83.06;99679.47;1649160;85;21515;-64
2021/05/17 02:18:47;;;;;;;9.95;3.85;;;;;;;14.88;83.43;99682.27;1668340;85;23228;-67
2021/05/17 02:21:16;;;;;;;7.47;3.90;;;;;;;14.89;83.78;99672.34;1656813;84;21050;-68
2021/05/17 02:23:44;;;;;;;8.90;3.55;;;;;;;14.87;84.19;99667.05;1655816;84;21519;-68
2021/05/17 02:26:12;;;;;;;7.70;3.42;;;;;;;14.85;84.59;99666.80;1654365;85;21611;-68
2021/05/17 02:28:40;;;;;;;9.20;4.35;;;;;;;14.84;84.76;99664.56;1652384;85;21566;-68
2021/05/17 02:31:08;;;;;;;5.15;3.42;;;;;;;14.83;84.93;99660.64;1653147;84;21121;-63
2021/05/17 02:33:35;;;;;;;8.58;3.10;;;;;;;14.77;85.22;99657.89;1655687;85;21153;-68
2021/05/17 02:36:05;;;;;;;9.48;3.30;;;;;;;14.74;85.42;99654.06;1653779;85;21057;-63
2021/05/17 02:38:33;;;;;;;6.47;3.37;;;;;;;14.70;85.59;99649.79;1648756;86;21567;-68
2021/05/17 02:41:01;;;;;;;7.17;3.50;;;;;;;14.67;85.70;99655.41;1632113;86;21397;-68
2021/05/17 02:43:29;;;;;;;11.38;3.95;;;;;;;14.66;85.89;99663.13;1632836;85;21672;-68
2021/05/17 02:46:01;;;;;;;7.05;3.62;;;;;;;14.65;86.00;99656.88;1633908;86;21096;-69
2021/05/17 02:48:29;;;;;;;7.50;3.47;;;;;;;14.66;86.05;99650.98;1651783;85;21105;-69
2021/05/17 02:50:56;;;;;;;5.95;2.72;;;;;;;14.69;85.95;99652.11;1637178;86;21089;-64
2021/05/17 02:53:37;;;;;;;7.25;3.25;;;;;;;14.71;85.87;99639.44;1666552;84;21166;-69
2021/05/17 02:56:15;;;;;;;10.05;3.70;;;;;;;14.72;85.64;99641.16;1655751;85;21171;-70
2021/05/17 02:58:46;;;;;;;10.80;3.72;;;;;;;14.74;85.46;99637.88;1655392;85;21045;-68
2021/05/17 03:01:18;;;;;;;6.00;2.90;;;;;;;14.75;85.24;99642.30;1609287;87;21149;-67
2021/05/17 03:03:50;;;;;;;6.47;3.50;;;;;;;14.76;85.06;99653.46;1632615;85;21126;-65
2021/05/17 03:06:37;;;;;;;8.23;3.17;;;;;;;14.78;84.88;99656.91;1619890;86;21091;-64
2021/05/17 03:09:06;;;;;;;8.05;2.83;;;;;;;14.82;84.58;99665.16;1623066;86;21686;-69
2021/05/17 03:11:42;;;;;;;6.65;2.80;;;;;;;14.83;84.30;99672.79;1651384;84;21589;-64
2021/05/17 03:14:09;;;;;;;5.85;2.80;;;;;;;14.80;84.21;99664.41;1661731;84;21105;-64
2021/05/17 03:16:37;;;;;;;8.55;2.80;;;;;;;14.79;84.20;99669.43;1659545;84;21116;-68
2021/05/17 03:19:04;;;;;;;8.73;3.33;;;;;;;14.79;84.11;99674.83;1639003;86;21173;-64
2021/05/17 03:21:33;;;;;;;9.00;3.17;;;;;;;14.80;84.07;99684.65;1636429;86;21161;-62
2021/05/17 03:24:00;;;;;;;14.33;3.17;;;;;;;14.81;83.97;99699.86;1681944;82;21562;-63
2021/05/17 03:26:27;;;;;;;8.05;3.17;;;;;;;14.83;83.91;99712.77;1658310;84;21150;-64
2021/05/17 03:28:54;;;;;;;7.17;3.08;;;;;;;14.81;83.88;99703.91;1703909;83;21064;-64
2021/05/17 03:31:21;;;;;;;8.00;3.10;;;;;;;14.80;83.89;99703.53;1698309;83;21573;-68
2021/05/17 03:33:47;;;;;;;5.92;3.12;;;;;;;14.78;83.90;99701.90;1706162;82;21601;-68
2021/05/17 03:36:14;;;;;;;5.67;2.92;;;;;;;14.77;83.95;99711.84;1704495;81;21082;-64
2021/05/17 03:38:41;;;;;;;7.87;3.30;;;;;;;14.77;83.94;99714.55;1709256;82;21094;-68
2021/05/17 03:41:08;;;;;;;9.60;3.33;;;;;;;14.81;83.84;99721.45;1655090;84;21104;-68
2021/05/17 03:43:35;;;;;;;8.65;3.15;;;;;;;14.84;83.75;99719.88;1651276;84;21561;-63
2021/05/17 03:46:02;;;;;;;7.90;3.50;;;;;;;14.90;83.61;99723.49;1654595;85;21705;-63
2021/05/17 03:48:29;;;;;;;7.40;3.40;;;;;;;14.94;83.35;99717.91;1716344;82;21079;-64
2021/05/17 03:50:56;;;;;;;12.98;3.87;;;;;;;14.97;83.21;99717.19;1698633;82;21557;-68
2021/05/17 03:53:23;;;;;;;16.40;5.17;;;;;;;14.98;83.13;99715.37;1715785;82;21498;-69
2021/05/17 03:55:49;;;;;;;14.87;6.03;;;;;;;15.01;83.14;99721.89;1693380;82;21077;-68
2021/05/17 03:58:16;;;;;;;16.52;5.30;;;;;;;15.04;83.21;99725.73;1689953;82;21054;-69
2021/05/17 04:00:43;;;;;;;11.95;5.00;;;;;;;15.10;83.12;99732.03;1690574;82;21120;-69
2021/05/17 04:03:16;;;;;;;14.58;5.45;;;;;;;15.13;83.09;99732.31;1658756;85;21149;-64
2021/05/17 04:13:54;;;;;;;9.80;3.75;;;;;;;15.02;82.97;99747.41;1644065;85;21156;-69
2021/05/17 04:16:21;;;;;;;8.25;3.90;;;;;;;15.02;82.99;99752.81;1661859;84;21106;-64
2021/05/17 04:18:48;;;;;;;7.15;3.37;;;;;;;15.03;82.84;99749.64;1705762;82;21125;-68
2021/05/17 04:21:15;;;;;;;6.95;3.55;;;;;;;15.01;82.77;99738.09;1651414;85;21096;-67
2021/05/17 04:23:42;;;;;;;5.90;3.60;;;;;;;14.98;82.66;99747.76;1641452;86;21112;-69
2021/05/17 04:26:10;;;;;;;9.68;3.58;;;;;;;14.97;82.77;99746.03;1633458;87;21191;-64
2021/05/17 04:28:37;;;;;;;11.45;4.60;;;;;;;14.99;82.89;99748.13;1649223;85;21523;-68
2021/05/17 04:31:04;;;;;;;10.40;4.50;;;;;;;15.04;83.10;99750.02;1628071;86;21160;-62
2021/05/17 04:33:30;;;;;;;13.53;4.37;;;;;;;15.11;83.27;99748.61;1623178;86;21653;-62
2021/05/17 04:35:57;;;;;;;8.85;4.37;;;;;;;15.17;83.31;99752.25;1621406;87;21109;-70
2021/05/17 04:38:24;;;;;;;9.00;4.10;;;;;;;15.24;83.05;99749.11;1634187;86;21095;-70
2021/05/17 04:40:51;;;;;;;14.30;4.12;;;;;;;15.28;82.98;99747.91;1692702;83;21021;-68
2021/05/17 04:43:18;;;;;;;11.33;5.33;;;;;;;15.28;83.10;99756.89;1690271;83;21635;-68
2021/05/17 04:45:45;;;;;;;17.40;5.70;;;;;;;15.32;83.19;99760.22;1705422;83;21156;-64
2021/05/17 04:48:11;;;;;;;18.35;5.75;;;;;;;15.39;83.20;99771.45;1690495;83;21121;-70
2021/05/17 04:50:39;;;;;;;13.95;5.22;;;;;;;15.44;83.21;99778.27;1692046;83;21023;-69
2021/05/17 04:53:06;;;;;;;15.38;4.10;;;;;;;15.49;83.02;99783.82;1697420;84;21108;-69
2021/05/17 04:55:34;;;;;;;9.30;4.22;;;;;;;15.52;82.84;99791.70;1691509;83;21129;-63
2021/05/17 04:58:00;;;;;;;18.37;4.60;;;;;;;15.54;82.68;99791.98;1693365;83;21096;-63
2021/05/17 05:00:27;;;;;;;9.08;4.15;;;;;;;15.57;82.55;99801.69;1702314;83;21129;-63
2021/05/17 05:02:54;;;;;;;15.18;4.33;;;;;;;15.57;82.35;99798.98;1709872;82;21442;-63
2021/05/17 05:05:21;;;;;;;11.68;4.22;;;;;;;15.57;82.34;99805.73;1690859;83;21116;-70
2021/05/17 05:07:48;;;;;;;8.23;4.35;;;;;;;15.57;82.42;99805.73;1692098;82;21064;-70
2021/05/17 05:10:15;;;;;;;8.90;3.98;;;;;;;15.58;82.38;99810.16;1689104;83;21539;-69
2021/05/17 05:12:44;;;;;;;10.85;4.47;;;;;;;15.59;82.36;99803.31;1684001;83;21044;-68
2021/05/17 05:15:12;;;;;;;10.60;4.12;;;;;;;15.63;82.34;99803.09;1698573;83;21145;-68
2021/05/17 05:17:38;;;;;;;11.85;3.98;;;;;;;15.69;82.40;99810.28;1691154;83;21120;-64
2021/05/17 05:20:07;;;;;;;26.52;5.37;;;;;;;15.81;82.10;99817.14;1692452;83;21097;-66
2021/05/17 05:22:36;;;;;;;29.77;6.03;;;;;;;15.92;81.45;99817.25;1690902;83;21364;-65
2021/05/17 05:25:05;;;;;;;19.02;5.58;;;;;;;16.01;80.47;99824.67;1703096;81;21719;-69
2021/05/17 05:27:39;;;;;;;15.03;4.53;;;;;;;16.06;80.25;99829.76;1703042;82;22074;-69
2021/05/17 05:30:20;;;;;;;20.77;4.30;;;;;;;16.11;79.93;99838.89;1708270;82;21139;-70
2021/05/17 05:33:06;;;;;;;19.10;4.62;;;;;;;16.15;79.94;99839.04;1702891;82;21117;-68
2021/05/17 05:35:24;;;;;;;17.95;5.00;;;;;;;16.17;80.17;99834.37;1702338;82;21156;-65
2021/05/17 05:37:51;;;;;;;15.40;5.28;;;;;;;16.20;80.07;99827.39;1693604;82;21115;-70
2021/05/17 05:40:17;;;;;;;15.48;5.58;;;;;;;16.26;79.95;99828.78;1694787;82;21195;-69
2021/05/17 05:42:44;;;;;;;17.90;5.60;;;;;;;16.33;80.02;99832.28;1693055;82;21159;-65
2021/05/17 05:45:12;;;;;;;16.62;5.47;;;;;;;16.43;79.82;99835.64;1707952;81;21211;-69
2021/05/17 05:47:39;;;;;;;18.30;5.90;;;;;;;16.50;79.68;99835.58;1718441;81;21519;-65
2021/05/17 05:50:06;;;;;;;11.88;5.70;;;;;;;16.58;79.56;99843.98;1709101;82;21768;-70
2021/05/17 05:52:33;;;;;;;18.42;5.40;;;;;;;16.69;79.45;99838.23;1700156;82;21127;-69
2021/05/17 05:55:04;;;;;;;13.65;5.62;;;;;;;16.84;78.84;99834.88;1713002;82;21131;-68
2021/05/17 05:57:37;;;;;;;14.85;5.10;;;;;;;16.97;78.43;99830.23;1691319;82;21452;-63
2021/05/17 05:59:59;;;;;;;11.50;5.40;;;;;;;17.12;77.89;99830.92;1702187;82;21814;-69
2021/05/17 06:02:25;;;;;;;19.98;5.65;;;;;;;17.28;77.17;99832.45;1700760;82;21636;-65
2021/05/17 06:04:52;;;;;;;18.87;5.45;;;;;;;17.42;76.65;99829.53;1713720;82;21075;-70
2021/05/17 06:07:19;;;;;;;9.78;4.25;;;;;;;17.59;76.43;99817.35;1692771;82;21101;-63
2021/05/17 06:09:55;;;;;;;14.05;5.12;;;;;;;17.82;75.97;99813.80;1695353;83;21483;-64
2021/05/17 06:12:26;;;;;;;9.10;4.62;;;;;;;18.04;75.22;99815.66;1694836;82;20994;-64
2021/05/17 06:14:59;;;;;;;12.60;4.12;;;;;;;18.25;74.32;99810.33;1702517;82;21652;-65
2021/05/17 06:17:25;;;;;;;11.55;5.03;;;;;;;18.41;73.40;99814.47;1706708;82;21649;-66
2021/05/17 06:19:53;;;;;;;10.75;4.45;;;;;;;18.52;72.39;99817.16;1705820;82;22191;-65
2021/05/17 06:22:38;;;;;;;8.80;3.72;;;;;;;18.62;71.58;99817.26;1704469;82;21154;-65
2021/05/17 06:25:12;;;;;;;;;;;;;;;18.74;70.98;99820.80;1693367;82;21776;-63
2021/05/17 06:27:42;;;;;;;6.58;2.98;;;;;;;18.92;70.63;99812.92;1685078;82;21051;-70
2021/05/17 06:30:13;;;;;;;8.28;3.22;;;;;;;19.07;70.14;99815.36;1693539;82;21089;-70
2021/05/17 06:32:40;;;;;;;6.45;3.40;;;;;;;19.25;70.10;99810.19;1697927;82;21475;-65
2021/05/17 06:35:16;;;;;;;7.55;3.72;;;;;;;19.49;69.30;99811.76;1688430;82;21082;-64
2021/05/17 06:37:43;;;;;;;7.83;4.03;;;;;;;19.67;68.93;99806.55;1690501;83;21033;-72
2021/05/17 06:40:12;;;;;;;10.28;5.05;;;;;;;19.94;68.06;99802.41;1699013;82;21154;-67
2021/05/17 06:42:39;;;;;;;12.40;4.15;;;;;;;20.16;67.09;99797.23;1698457;82;20912;-71
2021/05/17 06:45:08;;;;;;;5.78;3.20;;;;;;;20.31;65.95;99798.58;1690035;82;21057;-65
2021/05/17 06:47:36;;;;;;;5.50;2.60;;;;;;;20.47;64.88;99803.98;1691139;82;21365;-65
2021/05/17 06:50:06;;;;;;;5.25;2.27;;;;;;;20.65;63.17;99804.62;1705583;82;21099;-66
2021/05/17 06:52:33;;;;;;;6.22;2.62;;;;;;;20.78;62.35;99814.73;1691749;82;21196;-66
2021/05/17 06:55:04;;;;;;;3.65;2.37;;;;;;;20.89;62.06;99804.23;1683748;82;21094;-66
2021/05/17 06:58:02;;;;;;;6.75;3.00;;;;;;;21.07;62.43;99805.72;1687450;82;21052;-71
2021/05/17 07:00:27;;;;;;;6.87;4.47;;;;;;;21.31;61.71;99809.83;1692257;83;21114;-71
2021/05/17 07:02:52;;;;;;;9.33;3.30;;;;;;;21.57;59.93;99803.24;1690065;82;21102;-67
2021/05/17 07:05:22;;;;;;;6.67;2.72;;;;;;;21.79;58.19;99796.25;1688806;82;21149;-72
2021/05/17 07:11:33;;;;;;;3.67;1.52;;;;;;;21.95;57.05;99792.34;1694539;83;21473;-66
2021/05/17 07:13:12;;;;;;;8.25;1.80;;;;;;;22.00;55.75;99787.31;1692874;82;21097;-70
2021/05/17 07:15:39;;;;;;;4.58;2.08;;;;;;;22.03;55.52;99794.32;1682142;84;21090;-64
2021/05/17 07:18:06;;;;;;;3.35;1.60;;;;;;;22.08;55.59;99789.78;1693769;82;21650;-70
2021/05/17 07:25:47;;;;;;;5.85;1.90;;;;;;;22.26;53.19;99778.40;1696713;82;21110;-72
2021/05/17 07:28:15;;;;;;;4.35;2.08;;;;;;;22.32;54.11;99784.59;1693484;82;21159;-66
2021/05/17 07:30:42;;;;;;;5.83;1.80;;;;;;;22.38;55.47;99784.50;1677968;82;21697;-66
2021/05/17 07:33:09;;;;;;;4.37;1.60;;;;;;;22.49;55.24;99785.30;1688876;82;21632;-66
2021/05/17 07:35:35;;;;;;;3.87;1.70;;;;;;;22.53;54.90;99783.48;1689990;82;21401;-64
2021/05/17 07:38:02;;;;;;;3.02;1.92;;;;;;;22.56;54.89;99780.44;1693340;82;21165;-71
2021/05/17 07:40:28;;;;;;;5.40;1.80;;;;;;;22.61;54.38;99779.45;1693974;82;21519;-71
2021/05/17 07:42:55;;;;;;;4.25;2.02;;;;;;;22.64;54.25;99774.69;1688307;82;22190;-70
2021/05/17 07:45:22;;;;;;;5.55;1.65;;;;;;;22.64;54.33;99781.02;1686316;82;21118;-70
2021/05/17 07:47:49;;;;;;;4.53;1.80;;;;;;;22.74;54.02;99780.95;1635992;85;21338;-69
2021/05/17 07:50:17;;;;;;;7.03;2.37;;;;;;;22.84;53.59;99773.51;1683211;82;21176;-70
2021/05/17 07:52:44;;;;;;;3.83;1.98;;;;;;;22.95;53.53;99770.19;1694214;82;21141;-70
2021/05/17 07:55:13;;;;;;;4.53;1.77;;;;;;;23.03;53.34;99771.61;1689420;82;21461;-70
2021/05/17 07:57:39;;;;;;;4.10;2.05;;;;;;;23.13;53.43;99776.98;1697751;82;21545;-70
2021/05/17 08:00:09;;;;;;;4.42;1.85;;;;;;;23.34;53.08;99776.67;1684263;82;21539;-69
2021/05/17 08:02:36;;;;;;;7.87;1.87;;;;;;;23.56;51.56;99781.24;1695331;82;21601;-65
2021/05/17 08:05:03;;;;;;;6.55;2.00;;;;;;;23.70;50.98;99779.77;1648121;85;21140;-70
2021/05/17 08:07:29;;;;;;;7.28;2.00;;;;;;;23.96;50.60;99786.54;1688980;82;21134;-65
2021/05/17 08:09:56;;;;;;;4.75;1.72;;;;;;;24.17;49.87;99786.65;1686190;82;21134;-70
2021/05/17 08:12:23;;;;;;;5.35;1.87;;;;;;;24.23;49.63;99781.03;1689938;82;21140;-64
2021/05/17 08:14:49;;;;;;;4.08;1.80;;;;;;;24.24;49.60;99785.48;1682095;82;21117;-70
2021/05/17 08:17:16;;;;;;;6.30;2.52;;;;;;;24.23;49.08;99768.20;1685158;83;21086;-70
2021/05/17 08:19:43;;;;;;;3.30;1.87;;;;;;;24.29;49.24;99772.14;1691287;82;22359;-65
2021/05/17 08:22:10;;;;;;;10.68;2.98;;;;;;;24.43;49.82;99770.66;1685656;82;21191;-70
2021/05/17 08:24:37;;;;;;;6.35;2.70;;;;;;;24.59;50.13;99772.02;1687253;82;21144;-65
2021/05/17 08:27:05;;;;;;;6.05;2.25;;;;;;;24.63;49.44;99774.42;1685340;82;21184;-69
2021/05/17 08:29:33;;;;;;;6.92;2.65;;;;;;;24.60;49.11;99775.63;1692407;82;21308;-70
2021/05/17 08:32:02;;;;;;;9.30;2.90;;;;;;;24.59;49.29;99776.66;1689399;82;21676;-69
2021/05/17 08:34:29;;;;;;;6.30;3.35;;;;;;;24.52;49.51;99781.95;1704098;82;21132;-65
2021/05/17 08:36:57;;;;;;;10.55;3.12;;;;;;;24.45;49.92;99775.45;1695121;82;20997;-63
2021/05/17 08:39:23;;;;;;;9.60;2.92;;;;;;;24.42;50.22;99770.28;1693300;82;21161;-66
2021/05/17 08:41:50;;;;;;;7.97;2.77;;;;;;;24.54;49.94;99773.58;1698066;82;22222;-63
2021/05/17 08:44:17;;;;;;;11.45;2.87;;;;;;;24.66;49.78;99777.69;1681979;82;21129;-64
2021/05/17 08:46:47;;;;;;;7.95;2.17;;;;;;;24.83;49.77;99768.98;1686307;82;21550;-63
2021/05/17 08:49:15;;;;;;;17.87;2.62;;;;;;;24.95;48.09;99780.99;1695886;82;21523;-59
2021/05/17 08:51:41;;;;;;;7.72;3.00;;;;;;;24.96;46.29;99784.08;1682172;82;21761;-68
2021/05/17 08:54:09;;;;;;;3.12;1.80;;;;;;;24.96;48.45;99783.55;1689200;82;21585;-65
2021/05/17 08:56:47;;;;;;;3.72;2.02;;;;;;;24.97;47.51;99789.90;1693256;82;21001;-67
2021/05/17 08:59:15;;;;;;;10.85;3.08;;;;;;;24.98;45.92;99791.61;1692833;82;21309;-72
2021/05/17 09:01:45;;;;;;;4.25;2.02;;;;;;;25.00;46.78;99789.55;1690980;82;21005;-69
2021/05/17 09:04:17;;;;;;;10.03;2.20;;;;;;;24.97;46.97;99796.75;1696231;82;21628;-65
2021/05/17 09:06:56;;;;;;;17.05;3.25;;;;;;;24.95;46.36;99791.95;1684832;82;21174;-62
2021/05/17 09:09:36;;;;;;;7.33;3.10;;;;;;;24.94;47.86;99785.61;1693689;82;21064;-66
2021/05/17 09:12:09;;;;;;;10.00;3.12;;;;;;;24.97;48.20;99783.89;1684862;82;21531;-68
2021/05/17 09:14:36;;;;;;;7.22;3.20;;;;;;;24.93;47.99;99777.57;1666973;82;21185;-66
2021/05/17 09:17:13;;;;;;;7.60;3.15;;;;;;;24.81;47.73;99787.48;1639139;84;21114;-66
2021/05/17 09:19:47;;;;;;;;;;;;;;;24.69;48.10;99782.83;1666793;82;20959;-66
2021/05/17 09:22:20;;;;;;;11.70;3.12;;;;;;;24.58;48.06;99777.16;1685765;82;21003;-67
2021/05/17 09:24:54;;;;;;;6.53;2.80;;;;;;;24.48;48.03;99780.58;1685369;82;21402;-65
2021/05/17 09:27:25;;;;;;;8.05;2.52;;;;;;;24.45;48.07;99778.19;1691903;82;21515;-67
2021/05/17 09:29:54;;;;;;;7.70;2.65;;;;;;;24.44;47.95;99786.06;1695110;82;20994;-66
2021/05/17 09:32:31;;;;;;;6.55;2.50;;;;;;;24.42;48.02;99783.48;1699107;82;21595;-65
2021/05/17 09:35:17;;;;;;;6.00;2.42;;;;;;;24.39;48.11;99780.20;1692769;81;20960;-64
2021/05/17 09:37:53;;;;;;;6.10;2.17;;;;;;;24.35;48.09;99782.94;1691762;82;20967;-65
2021/05/17 09:40:31;;;;;;;9.38;2.30;;;;;;;24.19;48.39;99781.86;1640523;85;21099;-66
2021/05/17 09:43:05;;;;;;;4.12;2.55;;;;;;;23.99;48.71;99783.50;1690441;82;21917;-67
2021/05/17 09:45:39;;;;;;;3.80;2.30;;;;;;;23.82;49.12;99773.50;1693282;82;21562;-66
2021/05/17 09:48:11;;;;;;;9.15;2.72;;;;;;;23.66;49.46;99775.13;1700065;82;21775;-65
2021/05/17 09:51:08;;;;;;;5.47;2.33;;;;;;;23.56;49.99;99778.50;1691343;82;21204;-64
2021/05/17 09:53:45;;;;;;;5.12;2.33;;;;;;;23.53;50.13;99778.80;1689269;82;21113;-65
2021/05/17 09:56:18;;;;;;;9.85;2.42;;;;;;;23.58;50.16;99775.09;1687840;82;21069;-66
2021/05/17 09:58:57;;;;;;;6.55;2.50;;;;;;;23.67;50.16;99766.42;1691388;82;21125;-64
2021/05/17 10:01:28;;;;;;;6.10;2.40;;;;;;;23.77;50.06;99773.14;1693271;82;23069;-66
2021/05/17 10:04:02;;;;;;;4.72;2.60;;;;;;;23.88;49.91;99765.99;1685628;82;21028;-66
2021/05/17 10:06:29;;;;;;;3.95;2.20;;;;;;;23.99;49.72;99764.34;1695071;82;21052;-65
2021/05/17 10:08:56;;;;;;;3.83;2.17;;;;;;;24.07;49.43;99766.78;1685309;82;21751;-66
2021/05/17 10:11:26;;;;;;;11.88;2.30;;;;;;;24.05;49.16;99765.56;1696566;81;21502;-66
2021/05/17 10:13:52;;;;;;;4.62;2.70;;;;;;;23.94;49.16;99774.91;1697368;82;21624;-66
2021/05/17 10:16:20;;;;;;;9.55;2.47;;;;;;;23.81;49.60;99774.52;1655103;84;21799;-66
2021/05/17 10:18:50;;;;;;;11.73;2.90;;;;;;;23.69;49.57;99763.02;1647257;84;21105;-67
2021/05/17 10:21:21;;;;;;;7.95;2.60;;;;;;;23.61;49.49;99765.19;1645186;84;21071;-66
2021/05/17 10:23:49;;;;;;;5.62;2.10;;;;;;;23.51;49.91;99761.70;1648396;84;21146;-66
2021/05/17 10:26:24;;;;;;;8.33;2.77;;;;;;;23.41;50.09;99767.28;1645096;84;21596;-66
2021/05/17 10:28:56;;;;;;;10.00;2.75;;;;;;;23.35;50.51;99761.10;1644794;84;21537;-63
2021/05/17 10:31:24;;;;;;;8.05;2.47;;;;;;;23.28;50.17;99762.25;1646161;84;21058;-66
2021/05/17 10:34:09;;;;;;;5.50;2.60;;;;;;;23.21;50.86;99755.69;1645281;86;21140;-67
2021/05/17 10:37:01;;;;;;;6.40;2.60;;;;;;;23.14;51.20;99764.53;1639101;85;21146;-66
2021/05/17 10:39:44;;;;;;;6.12;2.17;;;;;;;23.03;51.35;99757.95;1645646;86;21101;-66
2021/05/17 10:43:24;;;;;;;5.20;2.10;;;;;;;22.93;51.15;99755.83;1639769;85;21310;-66
2021/05/17 10:48:34;;;;;;;6.58;2.42;;;;;;;22.88;49.88;99757.17;1641243;85;21158;-64
2021/05/17 10:51:19;;;;;;;9.23;2.30;;;;;;;22.84;49.98;99756.27;1648840;84;21098;-65
2021/05/17 10:53:55;;;;;;;5.87;3.05;;;;;;;22.80;50.14;99762.55;1648029;84;21554;-66
2021/05/17 10:56:46;;;;;;;10.93;2.80;;;;;;;22.72;50.81;99760.60;1647857;84;21078;-66
2021/05/17 11:02:00;;;;;;;9.63;2.55;;;;;;;22.64;52.38;99759.17;1648735;85;21110;-63
2021/05/17 11:04:37;;;;;;;8.80;2.47;;;;;;;22.59;52.63;99756.06;1656746;84;21152;-60
2021/05/17 11:07:18;;;;;;;11.48;2.65;;;;;;;22.53;52.86;99763.00;1698640;82;20991;-64
2021/05/17 11:10:10;;;;;;;5.25;2.42;;;;;;;22.50;52.99;99756.48;1702586;82;21538;-66
2021/05/17 11:12:43;;;;;;;9.20;2.22;;;;;;;22.53;53.11;99763.48;1695521;82;21072;-64
2021/05/17 11:15:13;;;;;;;8.28;2.58;;;;;;;22.61;52.61;99750.77;1699358;82;21140;-65
2021/05/17 11:18:01;;;;;;;3.85;2.30;;;;;;;22.71;52.39;99755.31;1696009;82;21166;-66
2021/05/17 11:20:45;;;;;;;7.55;3.02;;;;;;;22.80;52.21;99747.52;1686960;82;21990;-68
2021/05/17 11:23:26;;;;;;;7.70;2.40;;;;;;;22.87;52.28;99749.96;1691188;82;20990;-62
2021/05/17 11:26:02;;;;;;;8.93;2.75;;;;;;;22.87;52.28;99749.96;1691116;82;21002;-66
2021/05/17 11:28:41;;;;;;;13.03;2.95;;;;;;;22.85;52.64;99753.89;1693422;81;21122;-64
2021/05/17 11:34:09;;;;;;;4.40;2.67;;;;;;;22.71;52.67;99758.88;1689838;83;21822;-63
2021/05/17 11:36:50;;;;;;;4.70;2.62;;;;;;;22.63;52.76;99762.05;1671615;83;21195;-63
2021/05/17 11:39:34;;;;;;;6.50;2.55;;;;;;;22.57;52.91;99768.50;1699947;81;20910;-64
2021/05/17 11:42:04;;;;;;;7.60;2.72;;;;;;;22.60;52.29;99766.81;1699213;82;20998;-65
2021/05/17 11:47:27;;;;;;;7.22;2.37;;;;;;;22.69;52.63;99780.56;1691756;82;21125;-66
2021/05/17 11:49:55;;;;;;;6.72;2.95;;;;;;;22.77;53.72;99776.53;1692718;82;21495;-64
2021/05/17 11:52:25;;;;;;;9.10;2.42;;;;;;;22.84;54.32;99784.44;1694727;82;21635;-65
2021/05/17 11:54:55;;;;;;;6.47;2.55;;;;;;;22.89;54.74;99792.17;1684755;82;21643;-64
2021/05/17 11:57:27;;;;;;;5.50;2.70;;;;;;;22.83;57.67;99784.09;1694621;82;21038;-64
2021/05/17 11:59:54;;;;;;;4.10;3.02;;;;;;;22.55;59.14;99789.64;1699814;82;21493;-65
2021/05/17 12:02:21;;;;;;;4.87;2.55;;;;;;;22.19;61.27;99781.37;1696031;82;21572;-63
2021/05/17 12:04:49;;;;;;;6.40;2.67;;;;;;;21.87;62.80;99785.44;1665587;84;21174;-65
2021/05/17 12:07:19;;;;;;;5.67;2.42;;;;;;;21.59;64.09;99788.95;1656456;84;21169;-64
2021/05/17 12:09:53;;;;;;;4.62;3.15;;;;;;;21.35;65.34;99786.75;1657544;83;21659;-65
2021/05/17 12:12:29;;;;;;;4.55;2.80;;;;;;;21.18;65.68;99789.70;1652900;84;21189;-64